sensor_id;sensor_type;location;lat;lon;timestamp;P1;durP1;ratioP1;P2;durP2;ratioP2
69170;SDS011;56279;47.902;12.308;2023-11-19T00:00:29;2.35;;;1.33;;
69170;SDS011;56279;47.902;12.308;2023-11-19T00:02:31;1.67;;;1.25;;
69170;SDS011;56279;47.902;12.308;2023-11-19T00:04:32;1.98;;;1.17;;
69170;SDS011;56279;47.902;12.308;2023-11-19T00:06:33;1.40;;;1.00;;
69170;SDS011;56279;47.902;12.308;2023-11-19T00:08:34;5.78;;;2.38;;
69170;SDS011;56279;47.902;12.308;2023-11-19T00:10:36;12.88;;;5.10;;
69170;SDS011;56279;47.902;12.308;2023-11-19T00:12:38;6.78;;;2.70;;
69170;SDS011;56279;47.902;12.308;2023-11-19T00:14:42;4.32;;;2.05;;
69170;SDS011;56279;47.902;12.308;2023-11-19T00:16:45;4.50;;;2.13;;
69170;SDS011;56279;47.902;12.308;2023-11-19T00:18:46;14.65;;;7.15;;
69170;SDS011;56279;47.902;12.308;2023-11-19T00:20:47;8.85;;;3.25;;
69170;SDS011;56279;47.902;12.308;2023-11-19T00:22:50;3.05;;;1.42;;
69170;SDS011;56279;47.902;12.308;2023-11-19T00:24:54;1.92;;;1.40;;
69170;SDS011;56279;47.902;12.308;2023-11-19T00:26:55;2.30;;;1.10;;
69170;SDS011;56279;47.902;12.308;2023-11-19T00:28:57;1.10;;;0.95;;
69170;SDS011;56279;47.902;12.308;2023-11-19T00:30:59;1.63;;;1.10;;
69170;SDS011;56279;47.902;12.308;2023-11-19T00:33:01;2.63;;;1.27;;
69170;SDS011;56279;47.902;12.308;2023-11-19T00:35:03;1.85;;;1.30;;
69170;SDS011;56279;47.902;12.308;2023-11-19T00:37:05;1.92;;;1.42;;
69170;SDS011;56279;47.902;12.308;2023-11-19T00:39:07;2.55;;;1.40;;
69170;SDS011;56279;47.902;12.308;2023-11-19T00:41:09;2.53;;;1.40;;
69170;SDS011;56279;47.902;12.308;2023-11-19T00:43:11;3.20;;;1.52;;
69170;SDS011;56279;47.902;12.308;2023-11-19T00:45:12;3.55;;;1.92;;
69170;SDS011;56279;47.902;12.308;2023-11-19T00:47:14;2.42;;;1.50;;
69170;SDS011;56279;47.902;12.308;2023-11-19T00:49:15;2.20;;;1.55;;
69170;SDS011;56279;47.902;12.308;2023-11-19T00:51:16;2.63;;;1.58;;
69170;SDS011;56279;47.902;12.308;2023-11-19T00:53:17;3.53;;;1.60;;
69170;SDS011;56279;47.902;12.308;2023-11-19T00:55:19;2.83;;;1.40;;
69170;SDS011;56279;47.902;12.308;2023-11-19T00:57:20;3.28;;;1.75;;
69170;SDS011;56279;47.902;12.308;2023-11-19T00:59:21;2.63;;;1.65;;
69170;SDS011;56279;47.902;12.308;2023-11-19T01:01:23;2.20;;;1.30;;
69170;SDS011;56279;47.902;12.308;2023-11-19T01:03:24;2.40;;;1.15;;
69170;SDS011;56279;47.902;12.308;2023-11-19T01:05:26;2.10;;;1.20;;
69170;SDS011;56279;47.902;12.308;2023-11-19T01:07:29;1.67;;;1.38;;
69170;SDS011;56279;47.902;12.308;2023-11-19T01:09:31;3.50;;;1.60;;
69170;SDS011;56279;47.902;12.308;2023-11-19T01:11:36;1.83;;;1.20;;
69170;SDS011;56279;47.902;12.308;2023-11-19T01:13:37;2.35;;;1.48;;
69170;SDS011;56279;47.902;12.308;2023-11-19T01:15:41;1.63;;;1.35;;
69170;SDS011;56279;47.902;12.308;2023-11-19T01:17:43;2.20;;;1.50;;
69170;SDS011;56279;47.902;12.308;2023-11-19T01:19:44;2.50;;;1.60;;
69170;SDS011;56279;47.902;12.308;2023-11-19T01:21:46;1.95;;;1.45;;
69170;SDS011;56279;47.902;12.308;2023-11-19T01:23:47;2.47;;;1.50;;
69170;SDS011;56279;47.902;12.308;2023-11-19T01:25:48;2.53;;;1.48;;
69170;SDS011;56279;47.902;12.308;2023-11-19T01:27:50;1.70;;;1.30;;
69170;SDS011;56279;47.902;12.308;2023-11-19T01:29:51;2.45;;;1.42;;
69170;SDS011;56279;47.902;12.308;2023-11-19T01:31:53;2.60;;;1.30;;
69170;SDS011;56279;47.902;12.308;2023-11-19T01:33:54;1.75;;;1.30;;
69170;SDS011;56279;47.902;12.308;2023-11-19T01:35:55;2.38;;;1.33;;
69170;SDS011;56279;47.902;12.308;2023-11-19T01:37:59;1.75;;;1.30;;
69170;SDS011;56279;47.902;12.308;2023-11-19T01:40:00;1.88;;;1.30;;
69170;SDS011;56279;47.902;12.308;2023-11-19T01:42:04;2.00;;;1.20;;
69170;SDS011;56279;47.902;12.308;2023-11-19T01:44:06;1.77;;;1.17;;
69170;SDS011;56279;47.902;12.308;2023-11-19T01:46:07;1.73;;;1.20;;
69170;SDS011;56279;47.902;12.308;2023-11-19T01:48:12;1.17;;;1.00;;
69170;SDS011;56279;47.902;12.308;2023-11-19T01:50:14;2.33;;;1.35;;
69170;SDS011;56279;47.902;12.308;2023-11-19T01:52:16;2.10;;;1.38;;
69170;SDS011;56279;47.902;12.308;2023-11-19T01:54:18;2.38;;;1.40;;
69170;SDS011;56279;47.902;12.308;2023-11-19T01:56:19;3.30;;;1.60;;
69170;SDS011;56279;47.902;12.308;2023-11-19T01:58:21;2.22;;;1.40;;
69170;SDS011;56279;47.902;12.308;2023-11-19T02:00:24;2.22;;;1.35;;
69170;SDS011;56279;47.902;12.308;2023-11-19T02:02:25;2.78;;;1.45;;
69170;SDS011;56279;47.902;12.308;2023-11-19T02:04:27;2.33;;;1.40;;
69170;SDS011;56279;47.902;12.308;2023-11-19T02:06:28;2.58;;;1.58;;
69170;SDS011;56279;47.902;12.308;2023-11-19T02:08:32;2.50;;;1.40;;
69170;SDS011;56279;47.902;12.308;2023-11-19T02:10:34;2.03;;;1.33;;
69170;SDS011;56279;47.902;12.308;2023-11-19T02:12:35;2.22;;;1.15;;
69170;SDS011;56279;47.902;12.308;2023-11-19T02:14:37;2.55;;;1.42;;
69170;SDS011;56279;47.902;12.308;2023-11-19T02:16:38;3.10;;;1.67;;
69170;SDS011;56279;47.902;12.308;2023-11-19T02:18:39;2.72;;;1.50;;
69170;SDS011;56279;47.902;12.308;2023-11-19T02:20:41;2.72;;;1.55;;
69170;SDS011;56279;47.902;12.308;2023-11-19T02:22:42;4.63;;;1.35;;
69170;SDS011;56279;47.902;12.308;2023-11-19T02:24:45;3.28;;;1.55;;
69170;SDS011;56279;47.902;12.308;2023-11-19T02:26:58;2.20;;;1.40;;
69170;SDS011;56279;47.902;12.308;2023-11-19T02:29:01;2.35;;;1.50;;
69170;SDS011;56279;47.902;12.308;2023-11-19T02:31:03;2.63;;;1.60;;
69170;SDS011;56279;47.902;12.308;2023-11-19T02:33:10;2.58;;;1.58;;
69170;SDS011;56279;47.902;12.308;2023-11-19T02:35:11;3.72;;;2.30;;
69170;SDS011;56279;47.902;12.308;2023-11-19T02:37:14;3.22;;;1.65;;
69170;SDS011;56279;47.902;12.308;2023-11-19T02:39:15;2.70;;;1.58;;
69170;SDS011;56279;47.902;12.308;2023-11-19T02:41:22;2.17;;;1.30;;
69170;SDS011;56279;47.902;12.308;2023-11-19T02:43:23;4.00;;;1.70;;
69170;SDS011;56279;47.902;12.308;2023-11-19T02:45:25;3.33;;;1.63;;
69170;SDS011;56279;47.902;12.308;2023-11-19T02:47:27;1.80;;;1.25;;
69170;SDS011;56279;47.902;12.308;2023-11-19T02:49:31;2.72;;;1.45;;
69170;SDS011;56279;47.902;12.308;2023-11-19T02:51:33;3.35;;;1.70;;
69170;SDS011;56279;47.902;12.308;2023-11-19T02:53:36;2.47;;;1.38;;
69170;SDS011;56279;47.902;12.308;2023-11-19T02:55:40;4.10;;;1.75;;
69170;SDS011;56279;47.902;12.308;2023-11-19T02:57:42;2.45;;;1.60;;
69170;SDS011;56279;47.902;12.308;2023-11-19T02:59:50;3.05;;;1.75;;
69170;SDS011;56279;47.902;12.308;2023-11-19T03:01:52;3.83;;;1.80;;
69170;SDS011;56279;47.902;12.308;2023-11-19T03:03:53;3.30;;;1.48;;
69170;SDS011;56279;47.902;12.308;2023-11-19T03:05:58;3.25;;;1.63;;
69170;SDS011;56279;47.902;12.308;2023-11-19T03:08:00;2.85;;;1.60;;
69170;SDS011;56279;47.902;12.308;2023-11-19T03:10:01;2.40;;;1.55;;
69170;SDS011;56279;47.902;12.308;2023-11-19T03:12:02;4.43;;;1.67;;
69170;SDS011;56279;47.902;12.308;2023-11-19T03:14:05;3.13;;;1.38;;
69170;SDS011;56279;47.902;12.308;2023-11-19T03:16:07;2.50;;;1.50;;
69170;SDS011;56279;47.902;12.308;2023-11-19T03:18:08;2.80;;;1.45;;
69170;SDS011;56279;47.902;12.308;2023-11-19T03:20:10;2.28;;;1.35;;
69170;SDS011;56279;47.902;12.308;2023-11-19T03:22:15;3.08;;;1.60;;
69170;SDS011;56279;47.902;12.308;2023-11-19T03:24:17;3.22;;;1.45;;
69170;SDS011;56279;47.902;12.308;2023-11-19T03:26:18;2.40;;;1.40;;
69170;SDS011;56279;47.902;12.308;2023-11-19T03:28:22;2.42;;;1.80;;
69170;SDS011;56279;47.902;12.308;2023-11-19T03:30:23;4.82;;;1.50;;
69170;SDS011;56279;47.902;12.308;2023-11-19T03:32:26;3.53;;;1.63;;
69170;SDS011;56279;47.902;12.308;2023-11-19T03:34:28;6.82;;;3.92;;
69170;SDS011;56279;47.902;12.308;2023-11-19T03:36:32;5.10;;;2.63;;
69170;SDS011;56279;47.902;12.308;2023-11-19T03:38:34;2.45;;;1.45;;
69170;SDS011;56279;47.902;12.308;2023-11-19T03:40:36;3.35;;;1.50;;
69170;SDS011;56279;47.902;12.308;2023-11-19T03:42:38;2.47;;;1.50;;
69170;SDS011;56279;47.902;12.308;2023-11-19T03:44:42;2.47;;;1.40;;
69170;SDS011;56279;47.902;12.308;2023-11-19T03:46:43;3.20;;;1.45;;
69170;SDS011;56279;47.902;12.308;2023-11-19T03:48:46;3.88;;;1.65;;
69170;SDS011;56279;47.902;12.308;2023-11-19T03:50:48;3.45;;;1.40;;
69170;SDS011;56279;47.902;12.308;2023-11-19T03:52:50;3.65;;;1.75;;
69170;SDS011;56279;47.902;12.308;2023-11-19T03:54:51;8.57;;;4.97;;
69170;SDS011;56279;47.902;12.308;2023-11-19T03:56:53;5.45;;;2.47;;
69170;SDS011;56279;47.902;12.308;2023-11-19T03:58:54;4.50;;;1.92;;
69170;SDS011;56279;47.902;12.308;2023-11-19T04:00:55;7.65;;;3.22;;
69170;SDS011;56279;47.902;12.308;2023-11-19T04:02:56;5.43;;;3.13;;
69170;SDS011;56279;47.902;12.308;2023-11-19T04:04:58;5.38;;;3.33;;
69170;SDS011;56279;47.902;12.308;2023-11-19T04:07:00;5.40;;;2.10;;
69170;SDS011;56279;47.902;12.308;2023-11-19T04:09:02;3.28;;;1.77;;
69170;SDS011;56279;47.902;12.308;2023-11-19T04:11:03;5.75;;;2.10;;
69170;SDS011;56279;47.902;12.308;2023-11-19T04:13:05;3.67;;;2.17;;
69170;SDS011;56279;47.902;12.308;2023-11-19T04:15:06;5.28;;;1.92;;
69170;SDS011;56279;47.902;12.308;2023-11-19T04:17:08;4.47;;;2.30;;
69170;SDS011;56279;47.902;12.308;2023-11-19T04:19:09;6.63;;;2.45;;
69170;SDS011;56279;47.902;12.308;2023-11-19T04:21:10;4.55;;;2.10;;
69170;SDS011;56279;47.902;12.308;2023-11-19T04:23:12;4.57;;;2.60;;
69170;SDS011;56279;47.902;12.308;2023-11-19T04:25:13;6.15;;;3.20;;
69170;SDS011;56279;47.902;12.308;2023-11-19T04:27:16;6.38;;;3.25;;
69170;SDS011;56279;47.902;12.308;2023-11-19T04:29:17;6.22;;;3.03;;
69170;SDS011;56279;47.902;12.308;2023-11-19T04:31:19;5.03;;;2.25;;
69170;SDS011;56279;47.902;12.308;2023-11-19T04:33:20;4.47;;;2.28;;
69170;SDS011;56279;47.902;12.308;2023-11-19T04:35:21;3.55;;;2.15;;
69170;SDS011;56279;47.902;12.308;2023-11-19T04:37:22;4.07;;;2.15;;
69170;SDS011;56279;47.902;12.308;2023-11-19T04:39:24;4.53;;;2.15;;
69170;SDS011;56279;47.902;12.308;2023-11-19T04:41:25;3.38;;;1.95;;
69170;SDS011;56279;47.902;12.308;2023-11-19T04:43:28;3.40;;;1.90;;
69170;SDS011;56279;47.902;12.308;2023-11-19T04:45:29;4.72;;;2.42;;
69170;SDS011;56279;47.902;12.308;2023-11-19T04:47:30;2.90;;;1.75;;
69170;SDS011;56279;47.902;12.308;2023-11-19T04:49:32;3.58;;;1.90;;
69170;SDS011;56279;47.902;12.308;2023-11-19T04:51:37;2.97;;;1.50;;
69170;SDS011;56279;47.902;12.308;2023-11-19T04:53:42;3.72;;;2.05;;
69170;SDS011;56279;47.902;12.308;2023-11-19T04:55:44;4.82;;;2.20;;
69170;SDS011;56279;47.902;12.308;2023-11-19T04:57:45;7.00;;;4.25;;
69170;SDS011;56279;47.902;12.308;2023-11-19T04:59:46;6.43;;;2.38;;
69170;SDS011;56279;47.902;12.308;2023-11-19T05:01:48;5.60;;;3.17;;
69170;SDS011;56279;47.902;12.308;2023-11-19T05:03:49;2.95;;;1.80;;
69170;SDS011;56279;47.902;12.308;2023-11-19T05:05:51;3.20;;;2.05;;
69170;SDS011;56279;47.902;12.308;2023-11-19T05:07:53;3.33;;;1.80;;
69170;SDS011;56279;47.902;12.308;2023-11-19T05:09:54;3.05;;;1.80;;
69170;SDS011;56279;47.902;12.308;2023-11-19T05:11:55;4.22;;;1.63;;
69170;SDS011;56279;47.902;12.308;2023-11-19T05:13:56;4.68;;;2.05;;
69170;SDS011;56279;47.902;12.308;2023-11-19T05:15:58;3.13;;;1.95;;
69170;SDS011;56279;47.902;12.308;2023-11-19T05:17:59;4.45;;;2.42;;
69170;SDS011;56279;47.902;12.308;2023-11-19T05:20:00;4.90;;;2.65;;
69170;SDS011;56279;47.902;12.308;2023-11-19T05:22:01;4.28;;;2.15;;
69170;SDS011;56279;47.902;12.308;2023-11-19T05:24:03;5.38;;;2.55;;
69170;SDS011;56279;47.902;12.308;2023-11-19T05:26:07;3.58;;;2.10;;
69170;SDS011;56279;47.902;12.308;2023-11-19T05:28:09;4.05;;;2.10;;
69170;SDS011;56279;47.902;12.308;2023-11-19T05:30:11;4.10;;;2.33;;
69170;SDS011;56279;47.902;12.308;2023-11-19T05:32:12;4.80;;;2.80;;
69170;SDS011;56279;47.902;12.308;2023-11-19T05:34:13;4.57;;;2.63;;
69170;SDS011;56279;47.902;12.308;2023-11-19T05:36:15;4.25;;;2.08;;
69170;SDS011;56279;47.902;12.308;2023-11-19T05:38:17;6.78;;;4.50;;
69170;SDS011;56279;47.902;12.308;2023-11-19T05:40:18;4.03;;;2.40;;
69170;SDS011;56279;47.902;12.308;2023-11-19T05:42:21;5.25;;;3.00;;
69170;SDS011;56279;47.902;12.308;2023-11-19T05:44:22;5.32;;;2.63;;
69170;SDS011;56279;47.902;12.308;2023-11-19T05:46:24;7.07;;;4.53;;
69170;SDS011;56279;47.902;12.308;2023-11-19T05:48:26;6.57;;;4.28;;
69170;SDS011;56279;47.902;12.308;2023-11-19T05:50:28;6.03;;;3.40;;
69170;SDS011;56279;47.902;12.308;2023-11-19T05:52:30;4.28;;;2.25;;
69170;SDS011;56279;47.902;12.308;2023-11-19T05:54:34;3.67;;;2.17;;
69170;SDS011;56279;47.902;12.308;2023-11-19T05:56:38;4.45;;;2.33;;
69170;SDS011;56279;47.902;12.308;2023-11-19T05:58:40;5.28;;;2.30;;
69170;SDS011;56279;47.902;12.308;2023-11-19T06:00:41;5.18;;;2.28;;
69170;SDS011;56279;47.902;12.308;2023-11-19T06:02:43;3.85;;;2.03;;
69170;SDS011;56279;47.902;12.308;2023-11-19T06:04:44;3.33;;;2.00;;
69170;SDS011;56279;47.902;12.308;2023-11-19T06:06:48;4.90;;;2.47;;
69170;SDS011;56279;47.902;12.308;2023-11-19T06:08:49;3.70;;;1.90;;
69170;SDS011;56279;47.902;12.308;2023-11-19T06:10:51;4.70;;;2.88;;
69170;SDS011;56279;47.902;12.308;2023-11-19T06:12:52;4.43;;;2.00;;
69170;SDS011;56279;47.902;12.308;2023-11-19T06:14:56;3.20;;;1.60;;
69170;SDS011;56279;47.902;12.308;2023-11-19T06:16:58;3.65;;;2.17;;
69170;SDS011;56279;47.902;12.308;2023-11-19T06:18:59;4.13;;;2.20;;
69170;SDS011;56279;47.902;12.308;2023-11-19T06:21:00;3.72;;;2.00;;
69170;SDS011;56279;47.902;12.308;2023-11-19T06:23:02;4.22;;;2.28;;
69170;SDS011;56279;47.902;12.308;2023-11-19T06:25:03;3.90;;;2.25;;
69170;SDS011;56279;47.902;12.308;2023-11-19T06:27:08;3.90;;;2.17;;
69170;SDS011;56279;47.902;12.308;2023-11-19T06:29:09;2.38;;;1.50;;
69170;SDS011;56279;47.902;12.308;2023-11-19T06:31:10;3.35;;;1.60;;
69170;SDS011;56279;47.902;12.308;2023-11-19T06:33:14;3.78;;;1.77;;
69170;SDS011;56279;47.902;12.308;2023-11-19T06:35:16;2.90;;;1.80;;
69170;SDS011;56279;47.902;12.308;2023-11-19T06:37:17;3.20;;;1.60;;
69170;SDS011;56279;47.902;12.308;2023-11-19T06:39:19;3.78;;;1.77;;
69170;SDS011;56279;47.902;12.308;2023-11-19T06:41:20;4.00;;;2.05;;
69170;SDS011;56279;47.902;12.308;2023-11-19T06:43:22;3.17;;;1.60;;
69170;SDS011;56279;47.902;12.308;2023-11-19T06:45:23;4.28;;;1.70;;
69170;SDS011;56279;47.902;12.308;2023-11-19T06:47:25;4.50;;;1.45;;
69170;SDS011;56279;47.902;12.308;2023-11-19T06:49:31;2.13;;;1.55;;
69170;SDS011;56279;47.902;12.308;2023-11-19T06:51:33;2.60;;;1.25;;
69170;SDS011;56279;47.902;12.308;2023-11-19T06:53:34;2.35;;;1.63;;
69170;SDS011;56279;47.902;12.308;2023-11-19T06:55:36;1.85;;;1.30;;
69170;SDS011;56279;47.902;12.308;2023-11-19T06:57:38;1.65;;;1.33;;
69170;SDS011;56279;47.902;12.308;2023-11-19T06:59:39;2.00;;;1.30;;
69170;SDS011;56279;47.902;12.308;2023-11-19T07:01:40;0.93;;;0.90;;
69170;SDS011;56279;47.902;12.308;2023-11-19T07:03:47;2.10;;;1.10;;
69170;SDS011;56279;47.902;12.308;2023-11-19T07:05:49;1.80;;;1.27;;
69170;SDS011;56279;47.902;12.308;2023-11-19T07:07:50;2.08;;;1.20;;
69170;SDS011;56279;47.902;12.308;2023-11-19T07:09:51;2.03;;;1.10;;
69170;SDS011;56279;47.902;12.308;2023-11-19T07:11:52;1.92;;;1.30;;
69170;SDS011;56279;47.902;12.308;2023-11-19T07:13:54;1.77;;;1.10;;
69170;SDS011;56279;47.902;12.308;2023-11-19T07:15:55;2.90;;;1.20;;
69170;SDS011;56279;47.902;12.308;2023-11-19T07:17:57;1.45;;;1.00;;
69170;SDS011;56279;47.902;12.308;2023-11-19T07:19:59;2.45;;;1.38;;
69170;SDS011;56279;47.902;12.308;2023-11-19T07:22:03;1.67;;;1.10;;
69170;SDS011;56279;47.902;12.308;2023-11-19T07:24:08;1.60;;;1.23;;
69170;SDS011;56279;47.902;12.308;2023-11-19T07:26:09;1.73;;;1.10;;
69170;SDS011;56279;47.902;12.308;2023-11-19T07:28:10;1.75;;;1.25;;
69170;SDS011;56279;47.902;12.308;2023-11-19T07:30:12;2.90;;;1.23;;
69170;SDS011;56279;47.902;12.308;2023-11-19T07:32:13;3.92;;;2.08;;
69170;SDS011;56279;47.902;12.308;2023-11-19T07:34:14;1.98;;;1.10;;
69170;SDS011;56279;47.902;12.308;2023-11-19T07:36:16;1.83;;;1.15;;
69170;SDS011;56279;47.902;12.308;2023-11-19T07:38:19;1.80;;;1.20;;
69170;SDS011;56279;47.902;12.308;2023-11-19T07:40:20;2.47;;;1.20;;
69170;SDS011;56279;47.902;12.308;2023-11-19T07:42:21;1.48;;;1.20;;
69170;SDS011;56279;47.902;12.308;2023-11-19T07:44:23;1.73;;;1.20;;
69170;SDS011;56279;47.902;12.308;2023-11-19T07:46:25;2.00;;;1.10;;
69170;SDS011;56279;47.902;12.308;2023-11-19T07:48:26;1.92;;;1.10;;
69170;SDS011;56279;47.902;12.308;2023-11-19T07:50:28;3.65;;;1.63;;
69170;SDS011;56279;47.902;12.308;2023-11-19T07:52:31;1.90;;;1.40;;
69170;SDS011;56279;47.902;12.308;2023-11-19T07:54:32;1.83;;;1.27;;
69170;SDS011;56279;47.902;12.308;2023-11-19T07:56:34;2.40;;;1.30;;
69170;SDS011;56279;47.902;12.308;2023-11-19T07:58:36;2.35;;;1.20;;
69170;SDS011;56279;47.902;12.308;2023-11-19T08:00:38;1.90;;;1.33;;
69170;SDS011;56279;47.902;12.308;2023-11-19T08:02:41;1.42;;;1.10;;
69170;SDS011;56279;47.902;12.308;2023-11-19T08:04:43;1.27;;;1.08;;
69170;SDS011;56279;47.902;12.308;2023-11-19T08:06:46;1.75;;;1.30;;
69170;SDS011;56279;47.902;12.308;2023-11-19T08:08:47;1.52;;;1.00;;
69170;SDS011;56279;47.902;12.308;2023-11-19T08:10:49;1.40;;;1.02;;
69170;SDS011;56279;47.902;12.308;2023-11-19T08:12:52;1.52;;;1.20;;
69170;SDS011;56279;47.902;12.308;2023-11-19T08:14:54;2.55;;;1.15;;
69170;SDS011;56279;47.902;12.308;2023-11-19T08:16:56;1.35;;;1.10;;
69170;SDS011;56279;47.902;12.308;2023-11-19T08:18:58;1.20;;;1.10;;
69170;SDS011;56279;47.902;12.308;2023-11-19T08:20:59;1.30;;;1.00;;
69170;SDS011;56279;47.902;12.308;2023-11-19T08:23:04;1.58;;;1.20;;
69170;SDS011;56279;47.902;12.308;2023-11-19T08:25:06;2.05;;;1.20;;
69170;SDS011;56279;47.902;12.308;2023-11-19T08:27:08;1.70;;;1.30;;
69170;SDS011;56279;47.902;12.308;2023-11-19T08:29:09;2.72;;;1.27;;
69170;SDS011;56279;47.902;12.308;2023-11-19T08:31:10;1.73;;;1.10;;
69170;SDS011;56279;47.902;12.308;2023-11-19T08:33:11;1.30;;;0.90;;
69170;SDS011;56279;47.902;12.308;2023-11-19T08:35:12;2.67;;;1.27;;
69170;SDS011;56279;47.902;12.308;2023-11-19T08:37:14;3.28;;;1.42;;
69170;SDS011;56279;47.902;12.308;2023-11-19T08:39:16;2.67;;;1.30;;
69170;SDS011;56279;47.902;12.308;2023-11-19T08:41:17;5.82;;;1.90;;
69170;SDS011;56279;47.902;12.308;2023-11-19T08:43:20;3.85;;;1.48;;
69170;SDS011;56279;47.902;12.308;2023-11-19T08:45:21;2.97;;;1.52;;
69170;SDS011;56279;47.902;12.308;2023-11-19T08:47:23;3.22;;;1.60;;
69170;SDS011;56279;47.902;12.308;2023-11-19T08:49:24;2.95;;;1.60;;
69170;SDS011;56279;47.902;12.308;2023-11-19T08:51:26;2.17;;;1.40;;
69170;SDS011;56279;47.902;12.308;2023-11-19T08:53:29;2.08;;;1.42;;
69170;SDS011;56279;47.902;12.308;2023-11-19T08:55:30;2.75;;;1.48;;
69170;SDS011;56279;47.902;12.308;2023-11-19T08:57:32;1.40;;;1.20;;
69170;SDS011;56279;47.902;12.308;2023-11-19T08:59:33;1.83;;;1.10;;
69170;SDS011;56279;47.902;12.308;2023-11-19T09:01:35;2.47;;;1.42;;
69170;SDS011;56279;47.902;12.308;2023-11-19T09:03:37;2.08;;;1.50;;
69170;SDS011;56279;47.902;12.308;2023-11-19T09:05:38;1.58;;;1.10;;
69170;SDS011;56279;47.902;12.308;2023-11-19T09:07:39;2.55;;;1.60;;
69170;SDS011;56279;47.902;12.308;2023-11-19T09:09:40;1.67;;;1.30;;
69170;SDS011;56279;47.902;12.308;2023-11-19T09:11:42;2.13;;;1.30;;
69170;SDS011;56279;47.902;12.308;2023-11-19T09:13:43;1.70;;;1.13;;
69170;SDS011;56279;47.902;12.308;2023-11-19T09:15:46;3.28;;;1.70;;
69170;SDS011;56279;47.902;12.308;2023-11-19T09:17:47;2.85;;;1.42;;
69170;SDS011;56279;47.902;12.308;2023-11-19T09:19:49;2.37;;;1.20;;
69170;SDS011;56279;47.902;12.308;2023-11-19T09:21:50;1.80;;;1.25;;
69170;SDS011;56279;47.902;12.308;2023-11-19T09:23:51;2.13;;;1.20;;
69170;SDS011;56279;47.902;12.308;2023-11-19T09:25:54;1.42;;;1.00;;
69170;SDS011;56279;47.902;12.308;2023-11-19T09:27:56;1.88;;;1.30;;
69170;SDS011;56279;47.902;12.308;2023-11-19T09:29:58;2.90;;;1.48;;
69170;SDS011;56279;47.902;12.308;2023-11-19T09:32:02;2.10;;;1.45;;
69170;SDS011;56279;47.902;12.308;2023-11-19T09:34:03;2.30;;;1.40;;
69170;SDS011;56279;47.902;12.308;2023-11-19T09:36:05;2.63;;;1.50;;
69170;SDS011;56279;47.902;12.308;2023-11-19T09:38:07;2.60;;;1.45;;
69170;SDS011;56279;47.902;12.308;2023-11-19T09:40:08;3.00;;;1.80;;
69170;SDS011;56279;47.902;12.308;2023-11-19T09:42:10;2.25;;;1.42;;
69170;SDS011;56279;47.902;12.308;2023-11-19T09:44:11;4.03;;;2.10;;
69170;SDS011;56279;47.902;12.308;2023-11-19T09:46:14;2.53;;;1.30;;
69170;SDS011;56279;47.902;12.308;2023-11-19T09:48:17;3.50;;;1.42;;
69170;SDS011;56279;47.902;12.308;2023-11-19T09:50:19;3.63;;;1.70;;
69170;SDS011;56279;47.902;12.308;2023-11-19T09:52:21;2.28;;;1.30;;
69170;SDS011;56279;47.902;12.308;2023-11-19T09:54:22;1.80;;;1.40;;
69170;SDS011;56279;47.902;12.308;2023-11-19T09:56:24;2.40;;;1.13;;
69170;SDS011;56279;47.902;12.308;2023-11-19T09:58:27;1.65;;;1.13;;
69170;SDS011;56279;47.902;12.308;2023-11-19T10:00:28;2.27;;;1.40;;
69170;SDS011;56279;47.902;12.308;2023-11-19T10:02:31;2.25;;;1.17;;
69170;SDS011;56279;47.902;12.308;2023-11-19T10:04:34;2.17;;;1.10;;
69170;SDS011;56279;47.902;12.308;2023-11-19T10:06:38;1.88;;;1.30;;
69170;SDS011;56279;47.902;12.308;2023-11-19T10:08:39;2.28;;;1.30;;
69170;SDS011;56279;47.902;12.308;2023-11-19T10:10:45;1.63;;;1.30;;
69170;SDS011;56279;47.902;12.308;2023-11-19T10:12:46;2.13;;;1.30;;
69170;SDS011;56279;47.902;12.308;2023-11-19T10:14:48;2.17;;;1.23;;
69170;SDS011;56279;47.902;12.308;2023-11-19T10:16:52;1.60;;;1.02;;
69170;SDS011;56279;47.902;12.308;2023-11-19T10:18:53;2.50;;;1.20;;
69170;SDS011;56279;47.902;12.308;2023-11-19T10:20:56;1.43;;;1.10;;
69170;SDS011;56279;47.902;12.308;2023-11-19T10:22:58;1.83;;;1.13;;
69170;SDS011;56279;47.902;12.308;2023-11-19T10:24:59;1.98;;;1.20;;
69170;SDS011;56279;47.902;12.308;2023-11-19T10:27:01;1.25;;;1.10;;
69170;SDS011;56279;47.902;12.308;2023-11-19T10:29:04;2.10;;;1.40;;
69170;SDS011;56279;47.902;12.308;2023-11-19T10:31:06;1.83;;;1.13;;
69170;SDS011;56279;47.902;12.308;2023-11-19T10:33:12;1.70;;;1.20;;
69170;SDS011;56279;47.902;12.308;2023-11-19T10:35:21;2.08;;;1.20;;
69170;SDS011;56279;47.902;12.308;2023-11-19T10:37:29;1.60;;;1.17;;
69170;SDS011;56279;47.902;12.308;2023-11-19T10:39:51;2.92;;;1.73;;
69170;SDS011;56279;47.902;12.308;2023-11-19T10:41:56;1.53;;;1.20;;
69170;SDS011;56279;47.902;12.308;2023-11-19T10:44:00;1.73;;;1.25;;
69170;SDS011;56279;47.902;12.308;2023-11-19T10:46:09;3.05;;;1.10;;
69170;SDS011;56279;47.902;12.308;2023-11-19T10:48:12;2.33;;;1.20;;
69170;SDS011;56279;47.902;12.308;2023-11-19T10:50:15;2.45;;;1.55;;
69170;SDS011;56279;47.902;12.308;2023-11-19T10:52:18;1.07;;;0.97;;
69170;SDS011;56279;47.902;12.308;2023-11-19T10:54:24;1.90;;;1.00;;
69170;SDS011;56279;47.902;12.308;2023-11-19T10:56:26;2.58;;;1.30;;
69170;SDS011;56279;47.902;12.308;2023-11-19T10:58:32;2.13;;;1.00;;
69170;SDS011;56279;47.902;12.308;2023-11-19T11:00:44;1.08;;;0.95;;
69170;SDS011;56279;47.902;12.308;2023-11-19T11:02:52;1.73;;;1.10;;
69170;SDS011;56279;47.902;12.308;2023-11-19T11:04:57;1.80;;;1.15;;
69170;SDS011;56279;47.902;12.308;2023-11-19T11:07:00;1.63;;;1.13;;
69170;SDS011;56279;47.902;12.308;2023-11-19T11:09:03;1.85;;;1.40;;
69170;SDS011;56279;47.902;12.308;2023-11-19T11:11:22;2.20;;;1.40;;
69170;SDS011;56279;47.902;12.308;2023-11-19T11:13:25;2.07;;;1.23;;
69170;SDS011;56279;47.902;12.308;2023-11-19T11:15:30;2.42;;;1.17;;
69170;SDS011;56279;47.902;12.308;2023-11-19T11:17:32;3.72;;;1.58;;
69170;SDS011;56279;47.902;12.308;2023-11-19T11:19:35;2.38;;;1.45;;
69170;SDS011;56279;47.902;12.308;2023-11-19T11:21:37;2.47;;;1.65;;
69170;SDS011;56279;47.902;12.308;2023-11-19T11:37:39;2.05;;;1.35;;
69170;SDS011;56279;47.902;12.308;2023-11-19T11:39:46;1.90;;;1.00;;
69170;SDS011;56279;47.902;12.308;2023-11-19T11:42:14;1.45;;;1.10;;
69170;SDS011;56279;47.902;12.308;2023-11-19T11:44:25;1.55;;;1.10;;
69170;SDS011;56279;47.902;12.308;2023-11-19T11:46:58;3.23;;;1.30;;
69170;SDS011;56279;47.902;12.308;2023-11-19T11:49:04;2.08;;;1.00;;
69170;SDS011;56279;47.902;12.308;2023-11-19T11:51:09;1.40;;;1.00;;
69170;SDS011;56279;47.902;12.308;2023-11-19T11:53:13;1.25;;;1.00;;
69170;SDS011;56279;47.902;12.308;2023-11-19T11:55:17;1.23;;;1.10;;
69170;SDS011;56279;47.902;12.308;2023-11-19T11:57:18;1.43;;;1.00;;
69170;SDS011;56279;47.902;12.308;2023-11-19T11:59:20;1.30;;;1.08;;
69170;SDS011;56279;47.902;12.308;2023-11-19T12:01:21;1.52;;;1.10;;
69170;SDS011;56279;47.902;12.308;2023-11-19T12:03:22;1.17;;;1.08;;
69170;SDS011;56279;47.902;12.308;2023-11-19T12:05:24;1.63;;;1.00;;
69170;SDS011;56279;47.902;12.308;2023-11-19T12:07:28;1.43;;;1.00;;
69170;SDS011;56279;47.902;12.308;2023-11-19T12:09:29;1.02;;;0.90;;
69170;SDS011;56279;47.902;12.308;2023-11-19T12:11:33;1.20;;;1.05;;
69170;SDS011;56279;47.902;12.308;2023-11-19T12:13:53;1.38;;;1.10;;
69170;SDS011;56279;47.902;12.308;2023-11-19T12:18:01;1.57;;;1.00;;
69170;SDS011;56279;47.902;12.308;2023-11-19T12:20:04;1.40;;;1.10;;
69170;SDS011;56279;47.902;12.308;2023-11-19T12:22:10;1.95;;;0.93;;